Time;durP1;ratioP1;P1;durP2;ratioP2;P2;SDS_P1;SDS_P2;PMS_P1;PMS_P2;Temp;Humidity;BMP_temperature;BMP_pressure;BME280_temperature;BME280_humidity;BME280_pressure;Samples;Min_cycle;Max_cycle;Signal;HPM_P1;HPM_P2
2022/07/12 00:02:16;;;;;;;7.03;5.38;;;20.90;91.20;;;;;;5091082;28;20577;-67
2022/07/12 00:04:42;;;;;;;7.55;5.63;;;20.90;91.30;;;;;;5091018;28;20112;-68
2022/07/12 00:07:17;;;;;;;12.10;5.22;;;20.90;91.40;;;;;;5091451;28;20043;-67
2022/07/12 00:09:43;;;;;;;6.07;4.50;;;20.80;91.40;;;;;;5090523;28;20028;-67
2022/07/12 00:12:09;;;;;;;7.40;4.65;;;20.80;91.40;;;;;;5108019;28;20113;-67
2022/07/12 00:14:38;;;;;;;7.63;4.43;;;20.80;91.40;;;;;;5099943;28;20040;-67
2022/07/12 00:17:04;;;;;;;8.18;5.20;;;20.80;91.50;;;;;;5093454;28;20074;-67
2022/07/12 00:19:29;;;;;;;8.85;4.35;;;20.80;91.60;;;;;;5095786;28;20354;-67
2022/07/12 00:21:55;;;;;;;5.32;3.55;;;20.70;91.60;;;;;;5088204;28;20115;-67
2022/07/12 00:24:21;;;;;;;5.40;3.50;;;20.70;91.40;;;;;;5091864;28;20036;-67
2022/07/12 00:26:46;;;;;;;4.68;3.50;;;20.70;91.20;;;;;;5091274;28;20032;-67
2022/07/12 00:29:12;;;;;;;5.85;3.83;;;20.70;91.10;;;;;;5094219;28;20067;-67
2022/07/12 00:31:38;;;;;;;5.93;3.70;;;20.60;91.10;;;;;;5105297;28;20024;-67
2022/07/12 00:34:03;;;;;;;5.22;3.70;;;20.70;91.20;;;;;;5105988;28;20119;-67
2022/07/12 00:36:29;;;;;;;5.22;3.28;;;20.60;91.10;;;;;;5112641;28;20028;-67
2022/07/12 00:38:56;;;;;;;5.03;3.65;;;20.60;91.10;;;;;;5114280;28;20483;-67
2022/07/12 00:41:22;;;;;;;5.32;3.53;;;20.60;91.10;;;;;;5088260;28;20088;-67
2022/07/12 00:43:48;;;;;;;5.72;3.55;;;20.50;91.20;;;;;;5093102;28;20048;-67
2022/07/12 00:46:22;;;;;;;4.80;3.22;;;20.60;91.00;;;;;;5098582;28;20384;-67
2022/07/12 00:48:48;;;;;;;4.20;2.75;;;20.50;91.00;;;;;;5082314;28;20028;-67
2022/07/12 00:51:15;;;;;;;5.10;3.28;;;20.50;91.00;;;;;;5093055;28;20034;-67
2022/07/12 00:53:41;;;;;;;4.78;3.40;;;20.50;91.10;;;;;;5093582;28;20028;-67
2022/07/12 00:56:07;;;;;;;4.70;3.20;;;20.50;91.10;;;;;;5106792;28;20043;-67
2022/07/12 00:58:33;;;;;;;5.40;3.58;;;20.50;91.00;;;;;;5092869;28;20024;-67
2022/07/12 01:00:59;;;;;;;5.20;3.78;;;20.50;90.90;;;;;;5096068;28;20028;-67
2022/07/12 01:03:26;;;;;;;6.18;3.67;;;20.50;91.10;;;;;;5114929;28;20059;-67
2022/07/12 01:05:52;;;;;;;4.72;3.45;;;20.40;90.90;;;;;;5099059;28;20036;-67
2022/07/12 01:08:19;;;;;;;5.85;4.10;;;20.40;90.90;;;;;;5102980;28;20495;-67
2022/07/12 01:10:49;;;;;;;4.97;3.53;;;20.30;90.90;;;;;;5093026;28;20028;-67
2022/07/12 01:13:15;;;;;;;6.25;4.00;;;20.30;90.90;;;;;;5093758;28;20047;-67
2022/07/12 01:15:41;;;;;;;5.32;3.90;;;20.30;91.20;;;;;;5092181;28;20032;-67
2022/07/12 01:18:07;;;;;;;6.00;4.25;;;20.30;90.80;;;;;;5094837;28;20337;-67
2022/07/12 01:20:33;;;;;;;4.28;3.28;;;20.30;90.90;;;;;;5092588;28;20047;-67
2022/07/12 01:22:59;;;;;;;4.97;3.67;;;20.30;90.80;;;;;;5094306;28;20375;-67
2022/07/12 01:25:25;;;;;;;4.85;3.63;;;20.20;90.70;;;;;;5092507;28;20031;-67
2022/07/12 01:27:52;;;;;;;4.82;3.40;;;20.20;90.90;;;;;;5085573;28;20020;-67
2022/07/12 01:30:17;;;;;;;4.78;3.70;;;20.20;91.10;;;;;;5094511;28;20081;-67
2022/07/12 01:32:43;;;;;;;4.40;3.22;;;20.20;91.00;;;;;;5090394;28;20032;-67
2022/07/12 01:35:10;;;;;;;4.85;3.38;;;20.20;91.10;;;;;;5093416;28;20047;-67
2022/07/12 01:37:43;;;;;;;5.07;3.63;;;20.20;91.10;;;;;;5092902;28;20028;-67
2022/07/12 01:40:14;;;;;;;7.22;3.47;;;20.20;91.30;;;;;;5104593;28;20046;-67
2022/07/12 01:42:40;;;;;;;5.05;3.53;;;20.20;91.20;;;;;;5092707;28;20044;-67
2022/07/12 01:45:08;;;;;;;5.10;3.58;;;20.20;91.50;;;;;;5093636;28;20032;-67
2022/07/12 01:47:34;;;;;;;6.55;4.05;;;20.20;91.20;;;;;;5092192;28;20073;-67
2022/07/12 01:50:01;;;;;;;5.60;3.95;;;20.20;91.30;;;;;;5093764;28;20388;-67
2022/07/12 01:52:27;;;;;;;4.47;3.40;;;20.10;91.30;;;;;;5092529;28;20038;-67
2022/07/12 01:55:03;;;;;;;5.40;3.55;;;20.10;91.20;;;;;;5093292;28;20035;-67
2022/07/12 01:57:29;;;;;;;4.13;3.17;;;20.10;91.20;;;;;;5093145;28;20043;-67
2022/07/12 01:59:56;;;;;;;4.40;3.15;;;20.10;91.00;;;;;;5092724;28;20479;-68
2022/07/12 02:02:24;;;;;;;8.07;3.10;;;20.10;91.00;;;;;;5092905;28;20035;-67
2022/07/12 02:04:50;;;;;;;3.97;2.97;;;20.10;91.00;;;;;;5092070;28;20123;-67
2022/07/12 02:07:16;;;;;;;3.95;2.72;;;20.00;91.00;;;;;;5091734;28;20125;-67
2022/07/12 02:09:42;;;;;;;6.32;3.00;;;20.00;91.20;;;;;;5091027;28;20081;-67
2022/07/12 02:12:10;;;;;;;4.72;3.33;;;20.00;91.30;;;;;;5092979;28;20051;-67
2022/07/12 02:14:36;;;;;;;4.05;3.10;;;20.10;91.50;;;;;;5091156;28;20044;-67
2022/07/12 02:17:02;;;;;;;5.60;3.30;;;20.10;91.60;;;;;;5092606;28;20034;-67
2022/07/12 02:19:27;;;;;;;5.28;3.30;;;20.10;91.70;;;;;;5092188;28;20043;-67
2022/07/12 02:21:53;;;;;;;3.97;3.05;;;20.10;91.70;;;;;;5092489;28;20107;-67
2022/07/12 02:24:19;;;;;;;4.57;3.30;;;20.10;91.70;;;;;;5091465;28;20020;-67
2022/07/12 02:26:44;;;;;;;3.63;3.17;;;20.20;91.70;;;;;;5092899;28;20071;-67
2022/07/12 02:29:11;;;;;;;4.30;3.10;;;20.20;91.60;;;;;;5091431;28;20081;-67
2022/07/12 02:31:57;;;;;;;5.13;3.08;;;20.10;91.30;;;;;;5091836;28;20024;-67
2022/07/12 02:34:22;;;;;;;4.85;3.22;;;20.10;91.30;;;;;;5080952;28;20075;-67
2022/07/12 02:36:48;;;;;;;3.92;2.78;;;20.10;91.10;;;;;;5092673;28;20468;-67
2022/07/12 02:39:14;;;;;;;4.82;3.13;;;20.00;91.20;;;;;;5105163;28;20036;-67
2022/07/12 02:41:39;;;;;;;5.30;3.42;;;20.00;91.40;;;;;;5091427;28;20040;-67
2022/07/12 02:44:05;;;;;;;4.60;3.15;;;20.00;91.40;;;;;;5091376;28;20115;-67
2022/07/12 02:46:31;;;;;;;4.53;3.47;;;20.00;91.40;;;;;;5093104;28;20032;-68
2022/07/12 02:48:57;;;;;;;12.43;3.47;;;20.00;91.60;;;;;;5102222;28;20476;-67
2022/07/12 02:51:23;;;;;;;3.92;3.00;;;20.00;91.80;;;;;;5100390;28;20063;-67
2022/07/12 02:53:48;;;;;;;4.68;3.42;;;20.00;91.60;;;;;;5097773;28;20051;-67
2022/07/12 02:56:14;;;;;;;3.65;2.75;;;20.00;91.60;;;;;;5102670;28;20043;-67
2022/07/12 02:58:40;;;;;;;6.45;3.20;;;20.00;91.80;;;;;;5089498;28;20504;-67
2022/07/12 03:01:06;;;;;;;4.55;3.30;;;20.00;91.60;;;;;;5081913;28;20040;-67
2022/07/12 03:03:32;;;;;;;4.70;3.50;;;20.00;91.70;;;;;;5088474;28;20081;-68
2022/07/12 03:05:58;;;;;;;6.03;3.40;;;20.00;91.80;;;;;;5090844;28;20043;-67
2022/07/12 03:08:24;;;;;;;7.40;3.50;;;20.00;91.80;;;;;;5093256;28;20024;-67
2022/07/12 03:10:49;;;;;;;5.55;3.03;;;20.10;92.00;;;;;;5092737;28;20032;-67
2022/07/12 03:13:15;;;;;;;5.43;3.25;;;20.00;91.90;;;;;;5090922;28;20033;-67
2022/07/12 03:15:41;;;;;;;10.50;2.97;;;20.00;91.90;;;;;;5092419;28;20044;-66
2022/07/12 03:18:07;;;;;;;4.10;2.53;;;20.00;91.60;;;;;;5093030;28;20068;-68
2022/07/12 03:20:33;;;;;;;4.25;2.72;;;20.00;91.50;;;;;;5093105;28;20485;-66
2022/07/12 03:22:58;;;;;;;4.35;3.08;;;19.90;91.50;;;;;;5097862;28;20020;-67
2022/07/12 03:25:31;;;;;;;4.32;2.83;;;20.00;91.40;;;;;;5091372;28;20118;-67
2022/07/12 03:27:56;;;;;;;6.05;3.35;;;19.90;91.40;;;;;;5090398;28;20103;-67
2022/07/12 03:30:22;;;;;;;6.10;3.13;;;19.90;91.40;;;;;;5088661;28;20442;-67
2022/07/12 03:32:51;;;;;;;3.72;3.03;;;19.90;91.30;;;;;;5093102;28;20038;-67
2022/07/12 03:35:16;;;;;;;3.72;2.92;;;19.80;91.30;;;;;;5094372;28;20484;-67
2022/07/12 03:37:44;;;;;;;4.07;2.78;;;19.80;91.10;;;;;;5091213;28;20028;-67
2022/07/12 03:40:11;;;;;;;8.63;3.33;;;19.80;91.00;;;;;;5091102;28;20036;-67
2022/07/12 03:42:37;;;;;;;4.45;2.70;;;19.80;91.10;;;;;;5088334;28;20070;-67
2022/07/12 03:45:03;;;;;;;3.65;2.38;;;19.80;91.00;;;;;;5092507;28;20479;-68
2022/07/12 03:47:29;;;;;;;3.42;2.58;;;19.70;91.00;;;;;;5095437;28;20032;-67
2022/07/12 03:49:58;;;;;;;4.20;2.80;;;19.70;90.90;;;;;;5095804;28;20032;-67
2022/07/12 03:52:23;;;;;;;4.93;3.00;;;19.70;91.00;;;;;;5098648;28;20116;-67
2022/07/12 03:54:49;;;;;;;4.00;2.80;;;19.70;91.20;;;;;;5098932;28;20122;-67
2022/07/12 03:57:15;;;;;;;4.07;3.08;;;19.70;91.30;;;;;;5096338;28;20552;-67
2022/07/12 03:59:45;;;;;;;4.40;2.95;;;19.70;91.40;;;;;;5094493;28;20031;-67
2022/07/12 04:02:12;;;;;;;4.43;3.40;;;19.70;91.60;;;;;;5094768;28;20503;-67
2022/07/12 04:04:38;;;;;;;4.45;3.10;;;19.70;91.60;;;;;;5097776;28;20032;-67
2022/07/12 04:07:04;;;;;;;5.18;3.40;;;19.70;91.60;;;;;;5101557;28;20111;-67
2022/07/12 04:09:29;;;;;;;4.60;3.08;;;19.70;91.60;;;;;;5104942;28;20054;-67
2022/07/12 04:11:58;;;;;;;4.20;3.20;;;19.70;91.70;;;;;;5096756;28;20036;-67
2022/07/12 04:14:24;;;;;;;5.93;4.13;;;19.70;91.90;;;;;;5096222;28;20433;-67
2022/07/12 04:16:49;;;;;;;4.55;3.38;;;19.70;91.80;;;;;;5092139;28;20024;-67
2022/07/12 04:19:15;;;;;;;6.50;3.40;;;19.70;92.00;;;;;;5094908;28;20498;-67
2022/07/12 04:21:41;;;;;;;6.30;3.33;;;19.70;91.80;;;;;;5092010;28;20032;-67
2022/07/12 04:24:07;;;;;;;5.57;3.28;;;19.70;91.80;;;;;;5093233;28;20428;-67
2022/07/12 04:26:33;;;;;;;4.88;3.50;;;19.70;91.90;;;;;;5100419;28;20024;-67
2022/07/12 04:28:59;;;;;;;4.75;3.25;;;19.70;91.90;;;;;;5094824;28;20381;-67
2022/07/12 04:31:24;;;;;;;10.02;3.85;;;19.80;92.20;;;;;;5096208;28;20031;-67
2022/07/12 04:33:53;;;;;;;6.03;3.80;;;19.70;92.00;;;;;;5100560;28;20031;-67
2022/07/12 04:36:19;;;;;;;4.72;3.45;;;19.70;92.10;;;;;;5097123;28;20043;-67
2022/07/12 04:38:44;;;;;;;5.85;3.45;;;19.70;91.90;;;;;;5092941;28;20094;-67
2022/07/12 04:41:10;;;;;;;7.45;3.92;;;19.70;91.90;;;;;;5099958;28;20508;-67
2022/07/12 04:43:36;;;;;;;5.50;3.85;;;19.70;91.80;;;;;;5097792;28;20031;-67
2022/07/12 04:46:08;;;;;;;5.85;3.92;;;19.70;91.80;;;;;;5104653;28;20062;-67
2022/07/12 04:48:34;;;;;;;8.90;3.80;;;19.70;91.90;;;;;;5092069;28;20028;-67
2022/07/12 04:51:00;;;;;;;4.15;2.65;;;19.70;91.90;;;;;;5104345;28;20110;-67
2022/07/12 04:53:25;;;;;;;16.40;2.88;;;19.70;91.50;;;;;;5097395;28;20031;-67
2022/07/12 04:55:55;;;;;;;7.68;3.40;;;19.70;91.30;;;;;;5101652;28;20135;-67
2022/07/12 04:58:21;;;;;;;14.60;3.72;;;19.60;91.20;;;;;;5101845;28;20099;-67
2022/07/12 05:00:50;;;;;;;7.40;3.35;;;19.60;91.30;;;;;;5090788;28;20039;-67
2022/07/12 05:03:16;;;;;;;11.80;3.25;;;19.60;91.30;;;;;;5092321;28;20480;-67
2022/07/12 05:05:42;;;;;;;4.43;3.40;;;19.60;91.30;;;;;;5111430;28;20041;-67
2022/07/12 05:08:08;;;;;;;30.27;4.15;;;19.50;91.50;;;;;;5111111;28;20572;-67
2022/07/12 05:10:35;;;;;;;16.45;3.65;;;19.60;91.90;;;;;;5093821;28;20551;-67
2022/07/12 05:13:01;;;;;;;42.55;4.28;;;19.60;91.90;;;;;;5092756;28;20040;-67
2022/07/12 05:15:27;;;;;;;14.73;3.30;;;19.60;91.60;;;;;;5112335;28;20475;-68
2022/07/12 05:17:55;;;;;;;62.90;4.43;;;19.60;91.50;;;;;;5107822;28;20040;-68
2022/07/12 05:20:21;;;;;;;21.88;3.75;;;19.50;91.40;;;;;;5094163;28;20506;-67
2022/07/12 05:22:47;;;;;;;19.50;4.07;;;19.60;91.60;;;;;;5094076;28;20092;-67
2022/07/12 05:25:12;;;;;;;48.15;3.83;;;19.60;91.70;;;;;;5111735;28;20038;-67
2022/07/12 05:27:38;;;;;;;48.05;3.92;;;19.50;91.40;;;;;;5104636;28;20027;-67
2022/07/12 05:30:04;;;;;;;55.25;4.28;;;19.50;91.60;;;;;;5097132;28;20019;-67
2022/07/12 05:32:31;;;;;;;14.35;4.03;;;19.50;91.80;;;;;;5098800;28;20273;-69
2022/07/12 05:34:57;;;;;;;14.52;3.72;;;19.50;91.90;;;;;;5093374;28;20134;-68
2022/07/12 05:37:25;;;;;;;32.30;4.30;;;19.60;91.80;;;;;;5098490;28;20089;-67
2022/07/12 05:39:52;;;;;;;8.07;3.90;;;19.50;91.90;;;;;;5098367;28;20040;-68
2022/07/12 05:42:18;;;;;;;12.43;3.38;;;19.50;92.00;;;;;;5098406;28;20040;-67
2022/07/12 05:44:44;;;;;;;23.00;4.40;;;19.60;91.90;;;;;;5099206;28;20030;-67
2022/07/12 05:47:09;;;;;;;8.30;3.75;;;19.60;92.10;;;;;;5104397;28;20382;-67
2022/07/12 05:49:38;;;;;;;5.13;3.50;;;19.60;92.20;;;;;;5104241;28;20056;-67
2022/07/12 05:54:48;;;;;;;4.00;3.22;;;19.70;91.90;;;;;;5096066;28;20363;-69
2022/07/12 05:57:18;;;;;;;4.57;2.90;;;19.60;91.40;;;;;;5101757;28;20020;-68
2022/07/12 05:59:44;;;;;;;5.20;3.40;;;19.60;91.50;;;;;;5107779;28;20106;-69
2022/07/12 06:02:10;;;;;;;4.55;3.45;;;19.60;91.70;;;;;;5092072;28;20164;-68
2022/07/12 06:04:36;;;;;;;4.03;3.22;;;19.60;91.90;;;;;;5108605;28;20501;-67
2022/07/12 06:07:02;;;;;;;6.82;3.13;;;19.60;91.70;;;;;;5099306;28;20038;-67
2022/07/12 06:09:31;;;;;;;4.47;2.92;;;19.60;91.60;;;;;;5107910;28;20028;-67
2022/07/12 06:11:57;;;;;;;5.25;2.90;;;19.60;91.60;;;;;;5103077;28;20432;-67
2022/07/12 06:14:23;;;;;;;3.53;2.42;;;19.60;91.50;;;;;;5094123;28;20047;-68
2022/07/12 06:16:48;;;;;;;4.03;2.75;;;19.60;91.40;;;;;;5099625;28;20043;-68
2022/07/12 06:19:14;;;;;;;5.15;3.42;;;19.60;91.40;;;;;;5100447;28;20106;-67
2022/07/12 06:21:41;;;;;;;5.70;3.45;;;19.60;91.40;;;;;;5094897;28;20437;-67
2022/07/12 06:24:07;;;;;;;8.20;3.60;;;19.60;91.40;;;;;;5110251;28;20020;-68
2022/07/12 06:26:32;;;;;;;6.35;4.03;;;19.60;91.70;;;;;;5092101;28;20373;-68
2022/07/12 06:28:58;;;;;;;8.43;4.05;;;19.60;91.80;;;;;;5091258;28;20028;-68
2022/07/12 06:31:25;;;;;;;6.13;4.60;;;19.70;92.10;;;;;;5092520;28;20038;-68
2022/07/12 06:33:51;;;;;;;7.40;4.38;;;19.70;92.00;;;;;;5091694;28;20068;-67
2022/07/12 06:36:19;;;;;;;6.45;4.40;;;19.70;92.10;;;;;;5087157;28;20067;-67
2022/07/12 06:38:45;;;;;;;8.02;4.20;;;19.70;92.10;;;;;;5091878;28;20715;-67
2022/07/12 06:41:10;;;;;;;7.70;4.57;;;19.70;91.70;;;;;;5082148;28;20024;-67
2022/07/12 06:43:42;;;;;;;6.68;3.95;;;19.70;91.90;;;;;;5095097;28;20023;-67
2022/07/12 06:46:08;;;;;;;6.05;4.18;;;19.70;91.90;;;;;;5094834;28;20020;-67
2022/07/12 06:48:34;;;;;;;9.70;3.90;;;19.80;91.90;;;;;;5098760;28;20107;-67
2022/07/12 06:50:59;;;;;;;6.53;3.50;;;19.80;91.70;;;;;;5098023;28;20077;-67
2022/07/12 06:53:26;;;;;;;6.28;4.00;;;19.80;91.80;;;;;;5106384;28;20140;-67
2022/07/12 06:55:51;;;;;;;5.88;3.60;;;19.80;92.20;;;;;;5084453;28;20041;-67
2022/07/12 06:58:20;;;;;;;8.93;3.78;;;19.80;91.70;;;;;;5094781;28;20031;-67
2022/07/12 07:00:45;;;;;;;6.47;4.55;;;19.80;91.70;;;;;;5099188;28;20058;-67
2022/07/12 07:03:11;;;;;;;7.30;4.38;;;19.80;91.80;;;;;;5107516;28;20027;-67
2022/07/12 07:05:37;;;;;;;6.13;3.92;;;19.90;91.90;;;;;;5098635;28;20115;-67
2022/07/12 07:08:03;;;;;;;4.25;2.50;;;19.80;91.90;;;;;;5100099;28;20031;-67
2022/07/12 07:10:29;;;;;;;7.38;4.20;;;19.90;91.70;;;;;;5097754;28;20027;-67
2022/07/12 07:12:58;;;;;;;5.60;4.10;;;19.90;91.90;;;;;;5096552;28;20040;-67
2022/07/12 07:15:23;;;;;;;5.57;3.75;;;19.90;92.20;;;;;;5104021;28;20039;-67
2022/07/12 07:17:50;;;;;;;6.00;4.18;;;20.00;92.20;;;;;;5102210;28;20032;-67
2022/07/12 07:20:16;;;;;;;5.32;3.85;;;20.10;92.20;;;;;;5105862;28;20031;-67
2022/07/12 07:22:42;;;;;;;6.35;4.22;;;20.10;92.10;;;;;;5100157;28;20031;-67
2022/07/12 07:25:11;;;;;;;7.40;4.60;;;20.20;92.40;;;;;;5103125;28;20084;-67
2022/07/12 07:27:38;;;;;;;8.27;4.45;;;20.30;92.40;;;;;;5098296;28;20046;-67
2022/07/12 07:32:49;;;;;;;4.95;3.72;;;20.40;92.60;;;;;;5091516;28;20035;-67
2022/07/12 07:35:15;;;;;;;9.02;3.95;;;20.50;92.40;;;;;;5089507;28;20092;-70
2022/07/12 07:37:44;;;;;;;5.28;3.50;;;20.50;92.30;;;;;;5100930;28;20107;-68
2022/07/12 07:40:10;;;;;;;5.25;4.00;;;20.50;91.50;;;;;;5100302;28;20177;-68
2022/07/12 07:42:35;;;;;;;7.93;4.00;;;20.50;91.90;;;;;;5098534;28;20036;-68
2022/07/12 07:45:03;;;;;;;13.13;4.07;;;20.50;92.20;;;;;;5099099;28;20039;-68
2022/07/12 07:47:28;;;;;;;5.32;3.33;;;20.60;92.60;;;;;;5091662;28;20392;-68
2022/07/12 07:49:57;;;;;;;5.97;4.30;;;20.60;92.10;;;;;;5094881;28;20024;-68
2022/07/12 07:52:23;;;;;;;7.45;3.38;;;20.70;92.40;;;;;;5094786;28;20043;-68
2022/07/12 07:54:48;;;;;;;6.28;3.83;;;20.80;92.00;;;;;;5098206;28;20475;-68
2022/07/12 07:57:14;;;;;;;11.73;3.90;;;20.80;92.10;;;;;;5087703;28;20031;-68
2022/07/12 07:59:40;;;;;;;6.00;4.10;;;20.90;92.10;;;;;;5090276;28;20487;-69
2022/07/12 08:02:05;;;;;;;6.80;3.55;;;20.90;92.50;;;;;;5090361;28;20487;-68
2022/07/12 08:04:31;;;;;;;4.45;3.17;;;21.00;92.40;;;;;;5092312;28;20025;-68
2022/07/12 08:06:58;;;;;;;5.82;3.90;;;21.00;92.50;;;;;;5091557;28;20051;-68
2022/07/12 08:09:24;;;;;;;6.07;3.83;;;21.10;92.90;;;;;;5093167;28;20024;-68
2022/07/12 08:11:49;;;;;;;5.53;3.60;;;21.20;92.30;;;;;;5090339;28;20043;-67
2022/07/12 08:14:15;;;;;;;5.82;4.32;;;21.20;92.10;;;;;;5095014;28;20032;-68
2022/07/12 08:16:41;;;;;;;4.95;3.17;;;21.30;92.70;;;;;;5092830;28;20046;-68
2022/07/12 08:19:07;;;;;;;6.15;4.05;;;21.30;92.30;;;;;;5091727;28;20031;-68
2022/07/12 08:21:33;;;;;;;6.03;3.80;;;21.40;92.90;;;;;;5091189;28;20039;-70
2022/07/12 08:23:58;;;;;;;5.90;4.03;;;21.50;93.00;;;;;;5091367;28;20043;-69
2022/07/12 08:26:24;;;;;;;6.38;3.33;;;21.60;92.80;;;;;;5093395;28;20023;-69
2022/07/12 08:28:51;;;;;;;5.85;3.70;;;21.70;92.60;;;;;;5090836;28;20028;-69
2022/07/12 08:31:16;;;;;;;5.45;3.58;;;21.70;92.90;;;;;;5092104;28;20031;-69
2022/07/12 08:33:42;;;;;;;9.23;3.80;;;21.80;92.70;;;;;;5092028;28;20043;-69
2022/07/12 08:36:08;;;;;;;5.90;3.53;;;21.90;92.80;;;;;;5090411;28;20036;-69
2022/07/12 08:38:38;;;;;;;4.80;3.25;;;22.00;92.10;;;;;;5092372;28;20373;-69
2022/07/12 08:41:04;;;;;;;5.03;3.50;;;21.90;92.20;;;;;;5094019;28;20426;-68
2022/07/12 08:43:34;;;;;;;4.72;3.40;;;22.00;92.10;;;;;;5089976;28;20032;-69
2022/07/12 08:46:09;;;;;;;3.45;0.93;;;22.00;91.80;;;;;;5096309;28;20506;-69
2022/07/12 08:48:35;;;;;;;5.78;3.45;;;22.00;91.30;;;;;;5100553;28;20024;-69
2022/07/12 08:51:09;;;;;;;7.15;3.30;;;21.90;91.40;;;;;;5091842;28;20131;-68
2022/07/12 08:53:35;;;;;;;9.15;4.35;;;22.00;91.80;;;;;;5093288;28;20483;-69
2022/07/12 08:56:03;;;;;;;5.78;3.00;;;22.00;92.30;;;;;;5093995;28;20044;-69
2022/07/12 08:58:29;;;;;;;5.35;2.90;;;22.10;92.30;;;;;;5107478;28;20467;-69
2022/07/12 09:00:54;;;;;;;7.47;2.88;;;22.10;91.80;;;;;;5112879;28;20047;-69
2022/07/12 09:03:20;;;;;;;6.78;3.65;;;22.20;91.50;;;;;;5099661;28;20027;-69
2022/07/12 09:05:57;;;;;;;4.65;3.15;;;22.10;91.70;;;;;;5105939;28;20403;-69
2022/07/12 09:08:32;;;;;;;5.60;3.42;;;22.10;91.70;;;;;;5093769;28;20112;-68
2022/07/12 09:11:03;;;;;;;4.88;3.65;;;22.10;91.90;;;;;;5104446;28;20483;-69
2022/07/12 09:13:49;;;;;;;7.72;3.08;;;22.10;92.20;;;;;;5098740;28;20040;-68
2022/07/12 09:16:17;;;;;;;5.25;3.05;;;22.20;92.30;;;;;;5110702;28;20122;-68
2022/07/12 09:18:44;;;;;;;4.55;3.03;;;22.30;91.90;;;;;;5101844;28;20065;-70
2022/07/12 09:21:20;;;;;;;3.58;2.28;;;22.30;92.00;;;;;;5097918;28;20499;-68
2022/07/12 09:23:59;;;;;;;3.67;2.72;;;22.30;92.10;;;;;;5097092;28;20043;-67
2022/07/12 09:26:33;;;;;;;4.15;3.05;;;22.40;92.00;;;;;;5097495;28;20032;-67
2022/07/12 09:29:06;;;;;;;3.38;2.40;;;22.40;92.10;;;;;;5100104;28;20028;-67
2022/07/12 09:37:21;;;;;;;4.53;2.97;;;22.50;92.00;;;;;;5109043;28;20080;-68
2022/07/12 09:39:52;;;;;;;9.30;2.85;;;22.50;92.40;;;;;;5110996;28;20116;-68
2022/07/12 09:42:18;;;;;;;4.80;3.10;;;22.60;92.20;;;;;;5106834;28;20480;-67
2022/07/12 09:44:45;;;;;;;7.40;2.80;;;22.60;92.30;;;;;;5110103;28;20076;-68
2022/07/12 09:47:14;;;;;;;3.80;2.22;;;22.70;92.30;;;;;;5102825;28;20035;-67
2022/07/12 09:49:41;;;;;;;5.25;3.53;;;22.80;92.00;;;;;;5094838;28;20063;-67
2022/07/12 09:52:20;;;;;;;4.10;2.60;;;22.80;91.90;;;;;;5100039;28;20035;-68
2022/07/12 09:54:49;;;;;;;8.88;3.13;;;22.90;92.30;;;;;;5108079;28;20043;-67
2022/07/12 09:57:33;;;;;;;4.10;2.45;;;22.80;92.30;;;;;;5099130;28;20028;-67
2022/07/12 10:00:01;;;;;;;4.22;2.75;;;22.90;92.20;;;;;;5099456;28;20390;-68
2022/07/12 10:02:51;;;;;;;2.95;1.83;;;22.90;92.30;;;;;;5098430;28;20386;-67
2022/07/12 10:05:18;;;;;;;5.85;2.65;;;23.00;92.10;;;;;;5101604;28;20059;-67
2022/07/12 10:07:45;;;;;;;4.47;3.03;;;23.00;92.20;;;;;;5092246;28;20028;-67
2022/07/12 10:10:11;;;;;;;3.67;2.03;;;23.00;92.10;;;;;;5097473;28;20028;-67
2022/07/12 10:12:41;;;;;;;3.60;2.33;;;23.10;92.10;;;;;;5103203;28;20048;-68
2022/07/12 10:15:15;;;;;;;4.10;3.00;;;23.10;92.20;;;;;;5099244;28;20484;-69
2022/07/12 10:17:43;;;;;;;5.70;2.80;;;23.10;92.30;;;;;;5107135;28;20028;-69
2022/07/12 10:20:24;;;;;;;3.13;2.35;;;23.20;92.30;;;;;;5109256;28;20024;-68
2022/07/12 10:22:54;;;;;;;5.38;2.75;;;23.20;92.40;;;;;;5107089;28;20119;-68
2022/07/12 10:25:33;;;;;;;4.30;1.77;;;23.30;92.50;;;;;;5105402;28;20066;-68
2022/07/12 10:28:05;;;;;;;2.20;1.73;;;23.40;92.20;;;;;;5105993;28;20030;-69
2022/07/12 10:30:48;;;;;;;4.38;2.50;;;23.40;92.10;;;;;;5101978;28;20024;-68
2022/07/12 10:33:22;;;;;;;5.20;2.73;;;23.50;92.20;;;;;;5110924;28;20463;-68
2022/07/12 10:36:01;;;;;;;4.47;1.80;;;23.60;92.10;;;;;;5104872;28;20196;-68
2022/07/12 10:38:27;;;;;;;1.92;1.42;;;23.70;91.80;;;;;;5106380;28;20152;-69
2022/07/12 10:40:53;;;;;;;3.08;2.03;;;23.80;91.80;;;;;;5092810;28;20032;-68
2022/07/12 10:43:21;;;;;;;4.68;1.52;;;23.80;91.50;;;;;;5100121;28;20027;-68
2022/07/12 10:45:48;;;;;;;2.35;1.90;;;23.80;91.60;;;;;;5104710;28;20123;-68
2022/07/12 10:48:14;;;;;;;2.70;1.05;;;23.80;91.70;;;;;;5096915;28;20468;-68
2022/07/12 10:50:45;;;;;;;2.42;1.25;;;23.80;91.70;;;;;;5089975;28;20028;-68
2022/07/12 10:53:40;;;;;;;1.13;0.95;;;23.90;91.30;;;;;;5098744;28;20494;-67
2022/07/12 10:56:17;;;;;;;3.25;1.60;;;23.90;91.50;;;;;;5103355;28;20044;-70
2022/07/12 10:58:53;;;;;;;3.47;1.65;;;24.00;91.50;;;;;;5107243;28;20146;-70
2022/07/12 11:01:29;;;;;;;3.22;0.90;;;24.00;91.40;;;;;;5101666;28;20024;-70
2022/07/12 11:04:08;;;;;;;1.80;1.08;;;24.10;91.30;;;;;;5101546;28;20043;-70
2022/07/12 11:06:36;;;;;;;1.92;1.05;;;24.10;91.40;;;;;;5088693;28;20036;-70
2022/07/12 11:09:15;;;;;;;2.67;1.60;;;24.10;91.50;;;;;;5097127;28;20074;-70
2022/07/12 11:11:49;;;;;;;1.70;1.20;;;24.20;91.40;;;;;;5102277;28;20445;-70
2022/07/12 11:14:23;;;;;;;1.73;1.20;;;24.20;91.30;;;;;;5110624;28;20107;-69
2022/07/12 11:16:56;;;;;;;1.25;1.10;;;24.20;91.20;;;;;;5103056;28;20089;-69
2022/07/12 11:19:27;;;;;;;1.38;0.90;;;24.30;91.10;;;;;;5104684;28;20028;-69
2022/07/12 11:21:55;;;;;;;2.28;1.23;;;24.40;91.50;;;;;;5079714;28;20093;-68
2022/07/12 11:24:23;;;;;;;1.58;1.27;;;24.40;91.10;;;;;;5104257;28;20118;-67
2022/07/12 11:26:48;;;;;;;1.30;0.95;;;24.40;91.00;;;;;;5104494;28;20459;-69
2022/07/12 11:29:15;;;;;;;1.10;1.00;;;24.50;91.10;;;;;;5107004;28;20527;-69
2022/07/12 11:31:43;;;;;;;1.58;1.30;;;24.60;91.10;;;;;;5104822;28;20024;-69
2022/07/12 11:34:25;;;;;;;2.38;1.15;;;24.60;91.00;;;;;;5108455;28;20035;-69
2022/07/12 11:36:53;;;;;;;1.35;0.90;;;24.70;91.20;;;;;;5094762;28;20071;-69
2022/07/12 11:39:38;;;;;;;2.55;1.50;;;24.70;90.90;;;;;;5098715;28;20062;-69
2022/07/12 11:42:05;;;;;;;1.40;1.30;;;24.80;90.60;;;;;;5105082;28;20059;-69
2022/07/12 11:44:49;;;;;;;2.60;1.50;;;24.80;90.90;;;;;;5109851;28;20027;-69
2022/07/12 11:47:15;;;;;;;;;;;24.80;90.80;;;;;;5107976;28;20122;-69
2022/07/12 11:49:47;;;;;;;2.10;1.20;;;24.90;91.20;;;;;;5105399;28;19911;-69
2022/07/12 11:52:17;;;;;;;3.30;1.10;;;24.90;90.90;;;;;;5101434;28;20020;-70
2022/07/12 11:54:48;;;;;;;1.10;1.00;;;25.00;90.90;;;;;;5106921;28;20436;-72
2022/07/12 11:57:15;;;;;;;3.40;1.60;;;25.00;90.90;;;;;;5094413;28;20077;-72
2022/07/12 11:59:41;;;;;;;3.97;1.55;;;25.10;90.90;;;;;;5090834;28;20123;-72
2022/07/12 12:02:15;;;;;;;3.30;1.23;;;25.20;90.70;;;;;;5096923;28;20050;-69
2022/07/12 12:04:50;;;;;;;1.75;1.00;;;25.20;90.80;;;;;;5107541;28;20146;-69
2022/07/12 12:07:21;;;;;;;3.10;1.10;;;25.30;90.90;;;;;;5079399;28;20050;-68
2022/07/12 12:10:09;;;;;;;1.65;0.90;;;25.40;90.50;;;;;;5092026;28;20043;-68
2022/07/12 12:12:36;;;;;;;1.23;0.90;;;25.40;90.60;;;;;;5092750;28;20068;-68
2022/07/12 12:15:06;;;;;;;1.67;1.10;;;25.40;90.40;;;;;;5092244;28;20814;-70
2022/07/12 12:17:34;;;;;;;1.65;0.85;;;25.50;90.30;;;;;;5106158;28;20107;-71
2022/07/12 12:20:17;;;;;;;1.17;0.82;;;25.50;90.50;;;;;;5085256;28;20036;-70
2022/07/12 12:22:45;;;;;;;0.90;0.90;;;25.60;89.90;;;;;;5088676;28;20047;-71
2022/07/12 12:25:13;;;;;;;3.05;1.30;;;25.60;89.70;;;;;;5093235;28;20027;-71
2022/07/12 12:27:42;;;;;;;4.03;1.02;;;25.70;87.80;;;;;;5099132;28;20032;-70
2022/07/12 12:30:09;;;;;;;1.58;0.90;;;25.80;89.90;;;;;;5103726;28;20024;-69
2022/07/12 12:32:57;;;;;;;1.30;0.82;;;25.80;89.50;;;;;;5103904;28;20233;-72
2022/07/12 12:35:31;;;;;;;1.65;0.70;;;25.80;89.70;;;;;;5100457;28;20028;-72
2022/07/12 12:38:02;;;;;;;1.75;0.98;;;25.90;90.00;;;;;;5105610;28;20032;-72
2022/07/12 12:40:30;;;;;;;2.58;1.00;;;25.90;86.40;;;;;;5104746;28;20059;-72
2022/07/12 12:43:13;;;;;;;2.28;0.68;;;26.00;88.30;;;;;;5107680;28;20024;-72
2022/07/12 12:45:49;;;;;;;4.30;0.88;;;26.00;88.40;;;;;;5104082;28;20027;-72
2022/07/12 12:48:19;;;;;;;2.53;0.70;;;26.00;88.00;;;;;;5104557;28;20047;-73
2022/07/12 12:50:47;;;;;;;5.00;1.00;;;26.10;87.10;;;;;;5105635;28;20368;-72
2022/07/12 12:53:21;;;;;;;0.57;0.57;;;26.10;86.00;;;;;;5108437;28;20120;-72
2022/07/12 12:55:49;;;;;;;0.47;0.35;;;26.10;86.60;;;;;;5108550;28;20046;-73
2022/07/12 12:58:19;;;;;;;0.52;0.52;;;26.20;87.60;;;;;;5093564;28;20032;-72
2022/07/12 13:00:48;;;;;;;0.57;0.57;;;26.20;86.50;;;;;;5102962;28;20031;-71
2022/07/12 13:03:15;;;;;;;0.80;0.77;;;26.20;85.10;;;;;;5104380;28;20046;-72